createdAt,value
2022-11-30T00:02:16.557Z,4.70
2022-11-30T00:05:03.749Z,4.70
2022-11-30T00:07:51.012Z,4.70
2022-11-30T00:10:39.455Z,4.70
2022-11-30T00:13:26.690Z,4.80
2022-11-30T00:16:15.707Z,4.70
2022-11-30T00:19:02.925Z,4.70
2022-11-30T00:21:50.204Z,4.70
2022-11-30T00:24:37.780Z,4.70
2022-11-30T00:27:25.277Z,4.70
2022-11-30T00:30:13.913Z,4.80
2022-11-30T00:33:03.260Z,4.80
2022-11-30T00:35:57.535Z,4.70
2022-11-30T00:38:45.570Z,4.70
2022-11-30T00:41:33.102Z,4.70
2022-11-30T00:44:20.706Z,4.70
2022-11-30T00:47:08.017Z,4.80
2022-11-30T00:49:56.621Z,4.80
2022-11-30T00:52:43.809Z,4.80
2022-11-30T00:55:31.817Z,4.70
2022-11-30T00:58:19.652Z,4.70
2022-11-30T01:01:07.130Z,4.70
2022-11-30T01:03:54.603Z,4.70
2022-11-30T01:06:43.304Z,4.60
2022-11-30T01:09:30.252Z,4.60
2022-11-30T01:12:17.629Z,4.60
2022-11-30T01:15:05.583Z,4.60
2022-11-30T01:17:52.666Z,4.50
2022-11-30T01:20:42.331Z,4.60
2022-11-30T01:23:31.214Z,4.50
2022-11-30T01:26:18.805Z,4.50
2022-11-30T01:29:06.381Z,4.50
2022-11-30T01:31:53.451Z,4.50
2022-11-30T01:34:40.883Z,4.50
2022-11-30T01:37:30.884Z,4.50
2022-11-30T01:40:19.724Z,4.50
2022-11-30T01:43:11.532Z,4.40
2022-11-30T01:45:58.814Z,4.40
2022-11-30T01:48:46.896Z,4.50
2022-11-30T01:51:37.953Z,4.50
2022-11-30T01:54:29.229Z,4.40
2022-11-30T01:57:22.888Z,4.40
2022-11-30T02:00:13.983Z,4.40
2022-11-30T02:03:05.865Z,4.40
2022-11-30T02:05:53.134Z,4.40
2022-11-30T02:08:40.535Z,4.40
2022-11-30T02:11:28.936Z,4.40
2022-11-30T02:14:31.699Z,4.40
2022-11-30T02:17:25.127Z,4.40
2022-11-30T02:20:34.668Z,4.40
2022-11-30T02:23:45.048Z,4.40
2022-11-30T02:26:48.340Z,4.40
2022-11-30T02:29:42.136Z,4.40
2022-11-30T02:32:33.173Z,4.40
2022-11-30T02:35:23.787Z,4.40
2022-11-30T02:38:12.904Z,4.40
2022-11-30T02:41:00.329Z,4.40
2022-11-30T02:43:48.007Z,4.30
2022-11-30T02:46:47.970Z,4.30
2022-11-30T02:49:43.358Z,4.40
2022-11-30T02:52:32.509Z,4.30
2022-11-30T02:55:20.792Z,4.40
2022-11-30T02:58:07.995Z,4.40
2022-11-30T03:00:55.332Z,4.30
2022-11-30T03:03:44.845Z,4.30
2022-11-30T03:06:31.905Z,4.30
2022-11-30T03:09:19.273Z,4.30
2022-11-30T03:12:07.292Z,4.30
2022-11-30T03:14:55.093Z,4.30
2022-11-30T03:17:42.404Z,4.40
2022-11-30T03:20:31.130Z,4.40
2022-11-30T03:23:18.496Z,4.40
2022-11-30T03:26:07.985Z,4.40
2022-11-30T03:28:55.473Z,4.40
2022-11-30T03:31:42.816Z,4.40
2022-11-30T03:34:30.224Z,4.30
2022-11-30T03:37:18.957Z,4.30
2022-11-30T03:40:07.332Z,4.30
2022-11-30T03:42:54.728Z,4.30
2022-11-30T03:45:45.832Z,4.30
2022-11-30T03:48:35.915Z,4.30
2022-11-30T03:51:23.409Z,4.40
2022-11-30T03:54:12.233Z,4.30
2022-11-30T03:56:59.354Z,4.40
2022-11-30T03:59:46.732Z,4.40
2022-11-30T04:02:34.285Z,4.30
2022-11-30T04:05:22.477Z,4.30
2022-11-30T04:08:09.563Z,4.30
2022-11-30T04:10:59.992Z,4.30
2022-11-30T04:13:47.321Z,4.30
2022-11-30T04:16:34.614Z,4.30
2022-11-30T04:19:21.900Z,4.30
2022-11-30T04:22:09.226Z,4.30
2022-11-30T04:24:56.795Z,4.30
2022-11-30T04:27:47.954Z,4.30
2022-11-30T04:30:35.748Z,4.30
2022-11-30T04:33:23.049Z,4.20
2022-11-30T04:36:19.591Z,4.20
2022-11-30T04:39:06.774Z,4.20
2022-11-30T04:41:54.269Z,4.20
2022-11-30T04:44:43.166Z,4.20
2022-11-30T04:47:30.482Z,4.20
2022-11-30T04:50:17.969Z,4.20
2022-11-30T04:53:05.462Z,4.20
2022-11-30T04:55:52.797Z,4.20
2022-11-30T04:58:40.059Z,4.20
2022-11-30T05:01:29.322Z,4.20
2022-11-30T05:04:16.769Z,4.10
2022-11-30T05:07:03.721Z,4.10
2022-11-30T05:09:51.139Z,4.00
2022-11-30T05:12:38.645Z,4.00
2022-11-30T05:15:26.852Z,4.10
2022-11-30T05:18:15.773Z,4.10
2022-11-30T05:21:02.867Z,4.10
2022-11-30T05:23:51.617Z,4.10
2022-11-30T05:26:39.009Z,4.00
2022-11-30T05:29:26.063Z,4.00
2022-11-30T05:32:13.507Z,4.00
2022-11-30T05:35:02.308Z,4.00
2022-11-30T05:37:49.454Z,4.00
2022-11-30T05:40:37.062Z,4.00
2022-11-30T05:43:24.173Z,4.00
2022-11-30T05:46:12.197Z,4.00
2022-11-30T05:48:59.425Z,4.10
2022-11-30T05:51:48.101Z,4.00
2022-11-30T05:54:35.760Z,4.00
2022-11-30T05:57:23.335Z,4.00
2022-11-30T06:00:11.850Z,4.00
2022-11-30T06:02:59.639Z,4.00
2022-11-30T06:05:50.343Z,4.00
2022-11-30T06:08:39.166Z,4.00
2022-11-30T06:11:26.265Z,4.00
2022-11-30T06:14:13.709Z,4.00
2022-11-30T06:17:01.035Z,4.00
2022-11-30T06:19:48.529Z,4.00
2022-11-30T06:22:36.031Z,4.00
2022-11-30T06:25:24.792Z,4.00
2022-11-30T06:28:13.329Z,4.00
2022-11-30T06:31:00.549Z,4.00
2022-11-30T06:33:48.215Z,4.00
2022-11-30T06:36:36.398Z,4.00
2022-11-30T06:39:49.954Z,4.10
2022-11-30T06:42:33.368Z,4.10
2022-11-30T06:45:20.854Z,4.00
2022-11-30T06:48:08.404Z,4.00
2022-11-30T06:50:55.700Z,4.00
2022-11-30T06:53:45.067Z,4.00
2022-11-30T06:56:32.487Z,4.00
2022-11-30T06:59:21.201Z,4.00
2022-11-30T07:02:11.787Z,4.00
2022-11-30T07:05:01.641Z,4.00
2022-11-30T07:07:48.971Z,3.90
2022-11-30T07:10:40.775Z,4.00
2022-11-30T07:13:28.050Z,4.00
2022-11-30T07:16:16.966Z,4.00
2022-11-30T07:19:04.087Z,4.10
2022-11-30T07:21:51.578Z,4.00
2022-11-30T07:24:56.323Z,4.10
2022-11-30T07:27:43.532Z,4.00
2022-11-30T07:30:33.014Z,4.10
2022-11-30T07:33:21.432Z,4.10
2022-11-30T07:36:09.148Z,4.10
2022-11-30T07:38:57.075Z,4.10
2022-11-30T07:41:44.698Z,4.10
2022-11-30T07:44:32.835Z,4.10
2022-11-30T07:47:20.137Z,4.10
2022-11-30T07:50:10.437Z,4.20
2022-11-30T07:52:57.605Z,4.20
2022-11-30T07:55:45.374Z,4.20
2022-11-30T07:58:32.718Z,4.30
2022-11-30T08:06:39.362Z,4.30
2022-11-30T08:09:26.624Z,4.20
2022-11-30T08:17:02.609Z,4.50
2022-11-30T08:19:50.115Z,4.40
2022-11-30T08:22:39.012Z,4.30
2022-11-30T08:25:26.176Z,4.40
2022-11-30T08:28:13.770Z,4.40
2022-11-30T08:31:03.291Z,4.30
2022-11-30T08:33:50.888Z,4.40
2022-11-30T08:41:52.170Z,4.40
2022-11-30T08:44:39.544Z,4.40
2022-11-30T08:47:27.111Z,4.40
2022-11-30T08:50:14.166Z,4.50
2022-11-30T08:53:06.265Z,4.50
2022-11-30T08:55:58.184Z,4.50
2022-11-30T08:58:48.220Z,4.40
2022-11-30T09:01:35.582Z,4.40
2022-11-30T09:04:22.983Z,4.40
2022-11-30T09:07:10.860Z,4.40
2022-11-30T09:09:58.226Z,4.40
2022-11-30T09:12:45.660Z,4.40
2022-11-30T09:15:34.496Z,4.50
2022-11-30T09:18:21.632Z,4.50
2022-11-30T09:21:10.923Z,4.50
2022-11-30T09:23:58.009Z,4.60
2022-11-30T09:26:45.358Z,4.60
2022-11-30T09:29:32.767Z,4.70
2022-11-30T09:32:21.522Z,4.70
2022-11-30T09:35:12.774Z,4.80
2022-11-30T09:38:00.524Z,4.90
2022-11-30T09:40:54.100Z,4.90
2022-11-30T09:43:48.619Z,5.00
2022-11-30T09:46:40.569Z,5.00
2022-11-30T09:49:32.834Z,4.90
2022-11-30T09:52:24.203Z,5.00
2022-11-30T09:55:15.829Z,5.20
2022-11-30T09:58:04.893Z,5.30
2022-11-30T10:00:52.468Z,5.30
2022-11-30T10:03:40.198Z,5.40
2022-11-30T10:06:35.640Z,5.40
2022-11-30T10:09:33.545Z,5.40
2022-11-30T10:12:26.108Z,5.50
2022-11-30T10:15:27.866Z,5.40
2022-11-30T10:18:23.198Z,5.40
2022-11-30T10:21:27.893Z,5.40
2022-11-30T10:24:30.573Z,5.40
2022-11-30T10:27:19.611Z,5.30
2022-11-30T10:30:15.074Z,5.30
2022-11-30T10:33:14.977Z,5.40
2022-11-30T10:36:06.788Z,5.40
2022-11-30T10:38:58.678Z,5.40
2022-11-30T10:41:52.442Z,5.60
2022-11-30T10:44:43.609Z,5.60
2022-11-30T10:47:36.948Z,5.60
2022-11-30T10:50:28.211Z,5.60
2022-11-30T10:53:15.546Z,5.60
2022-11-30T10:56:07.727Z,5.60
2022-11-30T10:59:01.237Z,5.80
2022-11-30T11:01:48.879Z,5.80
2022-11-30T11:04:35.992Z,5.80
2022-11-30T11:07:23.482Z,5.90
2022-11-30T11:10:16.499Z,5.90
2022-11-30T11:13:05.053Z,5.90
2022-11-30T11:16:00.153Z,5.90
2022-11-30T11:18:55.805Z,6.00
2022-11-30T11:21:53.613Z,6.10
2022-11-30T11:24:41.157Z,6.10
2022-11-30T11:27:30.648Z,6.00
2022-11-30T11:30:28.495Z,6.00
2022-11-30T11:33:22.799Z,6.00
2022-11-30T11:36:15.813Z,6.10
2022-11-30T11:39:04.338Z,6.10
2022-11-30T11:43:06.408Z,6.20
2022-11-30T11:45:56.234Z,6.10
2022-11-30T11:48:57.251Z,6.10
2022-11-30T11:56:42.168Z,6.20
2022-11-30T11:59:40.236Z,6.20
2022-11-30T12:02:35.372Z,6.20
2022-11-30T12:05:28.585Z,6.30
2022-11-30T12:08:22.300Z,6.40
2022-11-30T12:11:16.840Z,6.40
2022-11-30T12:14:09.295Z,6.30
2022-11-30T12:17:10.871Z,6.30
2022-11-30T12:20:06.115Z,6.30
2022-11-30T12:23:23.782Z,6.20
2022-11-30T12:26:20.893Z,6.20
2022-11-30T12:29:40.848Z,6.30
2022-11-30T12:32:38.375Z,6.10
2022-11-30T12:35:36.979Z,6.20
2022-11-30T12:38:35.582Z,6.10
2022-11-30T12:41:40.677Z,6.10
2022-11-30T12:44:42.590Z,6.10
2022-11-30T12:47:45.305Z,6.20
2022-11-30T12:50:47.694Z,6.10
2022-11-30T12:53:42.845Z,6.10
2022-11-30T12:56:45.551Z,6.10
2022-11-30T12:59:40.975Z,6.10
2022-11-30T13:02:58.646Z,6.10
2022-11-30T13:05:52.533Z,6.20
2022-11-30T13:08:48.419Z,6.10
2022-11-30T13:11:39.332Z,6.20
2022-11-30T13:14:29.089Z,6.10
2022-11-30T13:17:19.292Z,6.00
2022-11-30T13:20:17.712Z,5.80
2022-11-30T13:23:11.542Z,5.80
2022-11-30T13:26:09.394Z,5.70
2022-11-30T13:29:20.660Z,5.60
2022-11-30T13:32:33.996Z,5.50
2022-11-30T13:35:54.130Z,5.50
2022-11-30T13:38:41.244Z,5.20
2022-11-30T13:41:29.951Z,5.10
2022-11-30T13:44:26.011Z,5.10
2022-11-30T13:47:20.410Z,4.90
2022-11-30T13:50:10.425Z,4.70
2022-11-30T13:53:22.184Z,4.60
2022-11-30T13:56:36.146Z,4.40
2022-11-30T13:59:36.177Z,4.30
2022-11-30T14:02:54.078Z,4.20
2022-11-30T14:05:42.901Z,4.10
2022-11-30T14:08:35.911Z,4.00
2022-11-30T14:11:42.633Z,3.80
2022-11-30T14:14:47.452Z,3.60
2022-11-30T14:17:36.108Z,3.50
2022-11-30T14:20:32.065Z,3.40
2022-11-30T14:23:27.015Z,3.30
2022-11-30T14:26:16.668Z,3.40
2022-11-30T14:29:16.671Z,3.30
2022-11-30T14:32:11.516Z,3.10
2022-11-30T14:35:07.833Z,3.00
2022-11-30T14:37:58.343Z,3.00
2022-11-30T14:40:52.273Z,2.90
2022-11-30T14:43:39.844Z,2.90
2022-11-30T14:46:28.702Z,3.00
2022-11-30T14:49:18.194Z,2.90
2022-11-30T14:52:06.308Z,2.80
2022-11-30T14:54:59.508Z,2.90
2022-11-30T14:57:53.415Z,2.80
2022-11-30T15:00:43.247Z,2.60
2022-11-30T15:03:40.479Z,2.80
2022-11-30T15:06:32.707Z,2.80
2022-11-30T15:09:22.358Z,2.70
2022-11-30T15:12:10.018Z,2.50
2022-11-30T15:15:18.983Z,2.50
2022-11-30T15:18:16.256Z,2.30
2022-11-30T15:21:12.716Z,2.30
2022-11-30T15:24:02.269Z,2.40
2022-11-30T15:26:55.006Z,2.20
2022-11-30T15:29:45.265Z,2.30
2022-11-30T15:32:32.542Z,2.30
2022-11-30T15:35:28.246Z,2.40
2022-11-30T15:38:28.692Z,2.40
2022-11-30T15:41:20.117Z,2.40
2022-11-30T15:44:07.729Z,2.50
2022-11-30T15:47:00.287Z,2.30
2022-11-30T15:49:54.084Z,2.30
2022-11-30T15:52:45.680Z,2.30
2022-11-30T15:59:22.054Z,2.20
2022-11-30T16:02:26.197Z,2.20
2022-11-30T16:05:27.667Z,2.10
2022-11-30T16:12:44.178Z,2.10
2022-11-30T16:15:33.118Z,2.10
2022-11-30T16:18:23.092Z,2.00
2022-11-30T16:21:16.024Z,2.10
2022-11-30T16:24:03.641Z,2.00
2022-11-30T16:32:12.532Z,2.20
2022-11-30T16:40:40.213Z,2.10
2022-11-30T16:43:29.640Z,2.10
2022-11-30T16:46:20.709Z,2.20
2022-11-30T16:49:12.035Z,2.20
2022-11-30T16:52:01.261Z,2.30
2022-11-30T16:54:50.885Z,2.30
2022-11-30T16:57:40.441Z,2.30
2022-11-30T17:00:30.294Z,2.30
2022-11-30T17:03:25.838Z,2.40
2022-11-30T17:06:19.305Z,2.40
2022-11-30T17:09:07.431Z,2.40
2022-11-30T17:12:01.496Z,2.40
2022-11-30T17:14:51.695Z,2.40
2022-11-30T17:17:39.042Z,2.50
2022-11-30T17:20:27.803Z,2.40
2022-11-30T17:23:16.480Z,2.40
2022-11-30T17:26:03.525Z,2.30
2022-11-30T17:28:50.998Z,2.20
2022-11-30T17:31:38.232Z,2.10
2022-11-30T17:34:25.625Z,2.20
2022-11-30T17:37:13.802Z,2.30
2022-11-30T17:40:04.715Z,2.30
2022-11-30T17:42:52.169Z,2.40
2022-11-30T17:45:41.103Z,2.30
2022-11-30T17:48:30.889Z,2.40
2022-11-30T17:51:18.365Z,2.30
2022-11-30T17:54:05.901Z,2.20
2022-11-30T17:56:55.862Z,2.20
2022-11-30T17:59:43.325Z,2.30
2022-11-30T18:02:30.800Z,2.30
2022-11-30T18:05:18.417Z,2.30
2022-11-30T18:08:06.061Z,2.30
2022-11-30T18:10:53.215Z,2.30
2022-11-30T18:13:42.189Z,2.30
2022-11-30T18:16:31.294Z,2.30
2022-11-30T18:19:18.517Z,2.40
2022-11-30T18:22:06.070Z,2.30
2022-11-30T18:24:53.384Z,2.40
2022-11-30T18:27:40.884Z,2.40
2022-11-30T18:30:29.632Z,2.30
2022-11-30T18:33:16.917Z,2.40
2022-11-30T18:36:06.568Z,2.30
2022-11-30T18:38:53.987Z,2.30
2022-11-30T18:41:41.792Z,2.30
2022-11-30T18:44:28.957Z,2.30
2022-11-30T18:47:17.634Z,2.20
2022-11-30T18:50:05.054Z,2.20
2022-11-30T18:52:54.637Z,2.20
2022-11-30T18:55:42.049Z,2.20
2022-11-30T18:58:29.388Z,2.10
2022-11-30T19:01:18.782Z,2.10
2022-11-30T19:04:10.211Z,2.10
2022-11-30T19:06:57.684Z,2.00
2022-11-30T19:09:45.998Z,2.10
2022-11-30T19:12:34.622Z,2.20
2022-11-30T19:15:21.907Z,2.20
2022-11-30T19:18:11.413Z,2.10
2022-11-30T19:21:01.003Z,2.00
2022-11-30T19:23:48.708Z,2.00
2022-11-30T19:26:36.146Z,2.00
2022-11-30T19:29:23.577Z,2.00
2022-11-30T19:32:10.998Z,1.90
2022-11-30T19:34:58.373Z,1.90
2022-11-30T19:37:47.055Z,1.90
2022-11-30T19:40:34.378Z,1.80
2022-11-30T19:43:21.708Z,1.70
2022-11-30T19:46:10.698Z,1.90
2022-11-30T19:49:00.706Z,2.00
2022-11-30T19:51:47.955Z,2.00
2022-11-30T19:54:36.829Z,2.00
2022-11-30T19:57:24.045Z,2.00
2022-11-30T20:00:12.604Z,1.90
2022-11-30T20:03:09.575Z,1.80
2022-11-30T20:05:56.876Z,1.80
2022-11-30T20:08:44.263Z,1.70
2022-11-30T20:11:33.745Z,1.60
2022-11-30T20:14:22.720Z,1.60
2022-11-30T20:17:10.057Z,1.60
2022-11-30T20:19:59.435Z,1.60
2022-11-30T20:22:46.997Z,1.60
2022-11-30T20:25:35.166Z,1.60
2022-11-30T20:28:23.671Z,1.60
2022-11-30T20:31:12.095Z,1.60
2022-11-30T20:34:00.067Z,1.60
2022-11-30T20:36:47.910Z,1.60
2022-11-30T20:39:35.112Z,1.60
2022-11-30T20:42:22.551Z,1.70
2022-11-30T20:45:11.483Z,1.60
2022-11-30T20:47:58.915Z,1.70
2022-11-30T20:51:01.176Z,1.60
2022-11-30T20:53:54.596Z,1.80
2022-11-30T20:56:42.212Z,1.70
2022-11-30T20:59:29.619Z,1.60
2022-11-30T21:02:18.610Z,1.60
2022-11-30T21:05:06.379Z,1.60
2022-11-30T21:07:53.503Z,1.60
2022-11-30T21:10:41.366Z,1.80
2022-11-30T21:13:28.736Z,1.70
2022-11-30T21:16:19.383Z,1.70
2022-11-30T21:19:10.663Z,1.60
2022-11-30T21:21:59.194Z,1.60
2022-11-30T21:24:46.763Z,1.60
2022-11-30T21:27:34.317Z,1.60
2022-11-30T21:30:21.704Z,1.60
2022-11-30T21:33:09.028Z,1.60
2022-11-30T21:35:57.910Z,1.50
2022-11-30T21:38:45.329Z,1.50
2022-11-30T21:41:32.675Z,1.50
2022-11-30T21:44:19.977Z,1.60
2022-11-30T21:47:08.668Z,1.50
2022-11-30T21:49:56.757Z,1.60
2022-11-30T21:52:45.394Z,1.60
2022-11-30T21:55:33.299Z,1.70
2022-11-30T21:58:21.010Z,1.50
2022-11-30T22:01:12.218Z,1.60
2022-11-30T22:04:01.109Z,1.60
2022-11-30T22:06:48.189Z,1.50
2022-11-30T22:09:36.828Z,1.50
2022-11-30T22:12:24.328Z,1.50
2022-11-30T22:15:11.911Z,1.40
2022-11-30T22:17:59.383Z,1.50
2022-11-30T22:20:46.824Z,1.60
2022-11-30T22:23:35.316Z,1.60
2022-11-30T22:26:26.067Z,1.50
2022-11-30T22:29:16.009Z,1.40
2022-11-30T22:32:03.515Z,1.40
2022-11-30T22:34:51.017Z,1.40
2022-11-30T22:37:38.969Z,1.40
2022-11-30T22:40:26.471Z,1.40
2022-11-30T22:43:15.025Z,1.40
2022-11-30T22:46:10.417Z,1.20
2022-11-30T22:48:59.764Z,1.30
2022-11-30T22:51:47.046Z,1.20
2022-11-30T22:54:34.548Z,1.30
2022-11-30T22:57:21.988Z,1.20
2022-11-30T23:00:12.390Z,1.30
2022-11-30T23:02:59.477Z,1.30
2022-11-30T23:05:46.776Z,1.40
2022-11-30T23:08:35.384Z,1.30
2022-11-30T23:11:24.704Z,1.30
2022-11-30T23:14:12.357Z,1.30
2022-11-30T23:17:00.688Z,1.20
2022-11-30T23:19:48.124Z,1.20
2022-11-30T23:22:37.201Z,1.10
2022-11-30T23:25:25.039Z,1.20
2022-11-30T23:28:12.528Z,1.30
2022-11-30T23:31:03.576Z,1.30
2022-11-30T23:33:52.409Z,1.30
2022-11-30T23:36:40.107Z,1.30
2022-11-30T23:39:27.376Z,1.40
2022-11-30T23:42:14.805Z,1.40
2022-11-30T23:45:02.384Z,1.40
2022-11-30T23:47:50.910Z,1.30
2022-11-30T23:50:39.593Z,1.30
2022-11-30T23:53:27.655Z,1.30
2022-11-30T23:56:17.133Z,1.30
2022-11-30T23:59:04.270Z,1.40
